createdAt,value
2023-05-10T05:02:09.358Z,99267.25
2023-05-10T05:04:36.391Z,99265.94
2023-05-10T05:07:03.029Z,99272.91
2023-05-10T05:09:30.302Z,99279.09
2023-05-10T05:11:56.887Z,99279.31
2023-05-10T05:14:25.898Z,99282.94
2023-05-10T05:16:53.604Z,99287.13
2023-05-10T05:19:20.919Z,99291.41
2023-05-10T05:21:47.655Z,99292.47
2023-05-10T05:24:14.858Z,99300.03
2023-05-10T05:26:41.486Z,99296.59
2023-05-10T05:29:08.497Z,99299.19
2023-05-10T05:31:35.100Z,99305.47
2023-05-10T05:34:02.383Z,99302.53
2023-05-10T05:36:29.044Z,99308.84
2023-05-10T05:38:56.250Z,99316.53
2023-05-10T05:41:23.253Z,99322.66
2023-05-10T05:43:50.874Z,99319.41
2023-05-10T05:46:17.541Z,99324.97
2023-05-10T05:48:44.745Z,99319.53
2023-05-10T05:51:11.708Z,99324.88
2023-05-10T05:53:38.946Z,99329.19
2023-05-10T05:56:05.664Z,99330.88
2023-05-10T05:58:32.580Z,99337.94
2023-05-10T06:00:59.157Z,99337.94
2023-05-10T06:03:26.561Z,99347.78
2023-05-10T06:05:53.281Z,99348.06
2023-05-10T06:08:20.559Z,99361.06
2023-05-10T06:10:47.179Z,99361.34
2023-05-10T06:13:14.340Z,99361.50
2023-05-10T06:15:40.984Z,99369.94
2023-05-10T06:18:08.268Z,99377.28
2023-05-10T06:20:34.922Z,99374.31
2023-05-10T06:23:02.169Z,99376.69
2023-05-10T06:25:28.754Z,99378.44
2023-05-10T06:27:58.850Z,99378.94
2023-05-10T06:30:29.475Z,99381.13
2023-05-10T06:32:57.529Z,99384.00
2023-05-10T06:35:24.270Z,99388.19
2023-05-10T06:37:52.238Z,99382.47
2023-05-10T06:40:19.299Z,99394.00
2023-05-10T06:42:47.750Z,99397.44
2023-05-10T06:45:15.890Z,99391.06
2023-05-10T06:47:43.780Z,99409.56
2023-05-10T06:50:12.199Z,99398.03
2023-05-10T06:52:39.869Z,99406.03
2023-05-10T06:55:06.917Z,99413.09
2023-05-10T06:57:34.229Z,99406.25
2023-05-10T07:00:01.031Z,99410.53
2023-05-10T07:02:28.493Z,99419.31
2023-05-10T07:04:56.395Z,99413.03
2023-05-10T07:07:23.699Z,99419.88
2023-05-10T07:09:50.995Z,99418.94
2023-05-10T07:12:18.107Z,99424.44
2023-05-10T07:14:44.730Z,99419.09
2023-05-10T07:17:11.877Z,99422.66
2023-05-10T07:19:38.476Z,99424.28
2023-05-10T07:22:05.482Z,99430.88
2023-05-10T07:24:33.129Z,99426.59
2023-05-10T07:27:00.064Z,99424.44
2023-05-10T07:29:26.905Z,99423.88
2023-05-10T07:31:55.368Z,99428.28
2023-05-10T07:34:23.714Z,99430.78
2023-05-10T07:36:50.700Z,99428.94
2023-05-10T07:39:26.593Z,99426.94
2023-05-10T07:41:54.728Z,99433.81
2023-05-10T07:44:21.444Z,99435.31
2023-05-10T07:46:48.942Z,99432.84
2023-05-10T07:49:15.717Z,99430.16
2023-05-10T07:51:43.645Z,99434.34
2023-05-10T07:54:10.326Z,99436.25
2023-05-10T07:56:37.442Z,99439.13
2023-05-10T07:59:05.946Z,99440.25
2023-05-10T08:01:33.905Z,99433.75
2023-05-10T08:04:01.123Z,99437.72
2023-05-10T08:06:29.460Z,99442.16
2023-05-10T08:08:56.518Z,99437.91
2023-05-10T08:11:23.735Z,99445.22
2023-05-10T08:13:51.511Z,99448.47
2023-05-10T08:16:18.942Z,99448.34
2023-05-10T08:18:47.676Z,99455.00
2023-05-10T08:21:16.025Z,99456.88
2023-05-10T08:23:44.497Z,99449.91
2023-05-10T08:26:11.543Z,99446.06
2023-05-10T08:28:38.965Z,99449.47
2023-05-10T08:31:06.248Z,99454.47
2023-05-10T08:33:33.650Z,99460.69
2023-05-10T08:36:00.705Z,99457.22
2023-05-10T08:38:27.453Z,99449.81
2023-05-10T08:41:00.126Z,99459.16
2023-05-10T08:43:29.541Z,99461.16
2023-05-10T08:45:58.030Z,99446.34
2023-05-10T08:48:25.700Z,99452.09
2023-05-10T08:50:57.659Z,99464.38
2023-05-10T08:53:27.492Z,99468.81
2023-05-10T08:55:54.880Z,99474.22
2023-05-10T08:58:21.718Z,99478.25
2023-05-10T09:00:52.209Z,99472.47
2023-05-10T09:03:19.131Z,99485.47
2023-05-10T09:05:47.130Z,99480.41
2023-05-10T09:08:16.682Z,99484.59
2023-05-10T09:10:44.733Z,99492.97
2023-05-10T09:13:12.798Z,99487.06
2023-05-10T09:15:40.061Z,99490.91
2023-05-10T09:18:06.910Z,99492.00
2023-05-10T09:20:34.197Z,99497.78
2023-05-10T09:23:00.860Z,99495.69
2023-05-10T09:25:27.874Z,99496.53
2023-05-10T09:27:56.260Z,99502.28
2023-05-10T09:30:27.291Z,99496.31
2023-05-10T09:32:56.023Z,99505.97
2023-05-10T09:35:27.082Z,99509.75
2023-05-10T09:37:57.807Z,99505.19
2023-05-10T09:40:27.436Z,99516.00
2023-05-10T09:42:55.588Z,99506.41
2023-05-10T09:45:24.550Z,99509.66
2023-05-10T09:47:51.508Z,99511.06
2023-05-10T09:50:19.675Z,99512.56
2023-05-10T09:53:01.432Z,99520.88
2023-05-10T09:55:37.369Z,99511.53
2023-05-10T09:58:05.321Z,99509.28
2023-05-10T10:00:40.238Z,99509.69
2023-05-10T10:03:07.743Z,99501.78
2023-05-10T10:05:37.291Z,99498.66
2023-05-10T10:08:05.732Z,99505.63
2023-05-10T10:10:34.545Z,99510.56
2023-05-10T10:13:01.390Z,99503.47
2023-05-10T10:15:28.511Z,99505.69
2023-05-10T10:17:55.375Z,99506.75
2023-05-10T10:20:24.028Z,99499.69
2023-05-10T10:22:50.817Z,99500.28
2023-05-10T10:25:19.173Z,99492.13
2023-05-10T10:28:00.450Z,99499.44
2023-05-10T10:30:27.605Z,99498.88
2023-05-10T10:33:29.134Z,99490.06
2023-05-10T10:35:59.204Z,99479.34
2023-05-10T10:38:25.801Z,99480.25
2023-05-10T10:41:04.387Z,99483.53
2023-05-10T10:43:31.283Z,99480.69
2023-05-10T10:46:18.879Z,99480.06
2023-05-10T10:48:50.275Z,99478.66
2023-05-10T10:51:17.856Z,99481.03
2023-05-10T10:53:44.732Z,99478.09
2023-05-10T10:56:14.613Z,99477.97
2023-05-10T10:58:42.709Z,99489.63
2023-05-10T11:01:12.569Z,99486.50
2023-05-10T11:03:39.896Z,99488.59
2023-05-10T11:06:06.638Z,99488.47
2023-05-10T11:08:38.116Z,99485.78
2023-05-10T11:11:10.330Z,99486.31
2023-05-10T11:13:48.437Z,99483.56
2023-05-10T11:16:24.969Z,99480.41
2023-05-10T11:19:00.224Z,99484.53
2023-05-10T11:21:27.091Z,99488.31
2023-05-10T11:23:59.675Z,99486.81
2023-05-10T11:26:34.609Z,99485.50
2023-05-10T11:29:03.159Z,99478.66
2023-05-10T11:31:30.462Z,99478.94
2023-05-10T11:33:59.609Z,99476.75
2023-05-10T11:36:34.095Z,99476.84
2023-05-10T11:39:01.043Z,99484.16
2023-05-10T11:41:29.820Z,99480.91
2023-05-10T11:43:57.508Z,99485.09
2023-05-10T11:46:28.191Z,99489.25
2023-05-10T11:49:04.941Z,99486.75
2023-05-10T11:51:35.474Z,99499.28
2023-05-10T11:54:05.795Z,99506.78
2023-05-10T11:56:34.364Z,99508.50
2023-05-10T11:59:02.764Z,99516.03
2023-05-10T12:01:30.386Z,99509.97
2023-05-10T12:04:01.831Z,99519.72
2023-05-10T12:06:32.394Z,99529.50
2023-05-10T12:08:59.504Z,99535.25
2023-05-10T12:11:28.706Z,99534.63
2023-05-10T12:13:57.032Z,99543.66
2023-05-10T12:16:26.354Z,99552.81
2023-05-10T12:18:54.649Z,99550.56
2023-05-10T12:21:22.972Z,99549.13
2023-05-10T12:23:52.390Z,99553.63
2023-05-10T12:26:22.877Z,99553.25
2023-05-10T12:28:49.568Z,99554.22
2023-05-10T12:31:16.879Z,99553.63
2023-05-10T12:33:46.135Z,99558.13
2023-05-10T12:36:14.087Z,99556.59
2023-05-10T12:38:44.157Z,99555.97
2023-05-10T12:41:13.977Z,99552.31
2023-05-10T12:43:41.065Z,99558.28
2023-05-10T12:46:16.023Z,99561.50
2023-05-10T12:48:44.131Z,99553.72
2023-05-10T12:51:13.119Z,99561.16
2023-05-10T12:53:41.664Z,99561.81
2023-05-10T12:56:11.550Z,99573.94
2023-05-10T12:58:39.741Z,99567.19
2023-05-10T13:01:07.289Z,99562.38
2023-05-10T13:03:33.974Z,99560.38
2023-05-10T13:06:01.286Z,99562.28
2023-05-10T13:08:27.877Z,99568.59
2023-05-10T13:10:54.783Z,99571.28
2023-05-10T13:13:21.989Z,99566.38
2023-05-10T13:15:48.564Z,99575.97
2023-05-10T13:18:15.932Z,99582.09
2023-05-10T13:20:44.020Z,99580.19
2023-05-10T13:23:11.673Z,99578.66
2023-05-10T13:25:38.402Z,99573.75
2023-05-10T13:28:05.717Z,99578.25
2023-05-10T13:30:32.369Z,99584.47
2023-05-10T13:32:59.619Z,99579.53
2023-05-10T13:35:26.240Z,99584.13
2023-05-10T13:37:54.741Z,99592.59
2023-05-10T13:40:21.330Z,99614.66
2023-05-10T13:42:48.525Z,99618.22
2023-05-10T13:45:15.241Z,99619.56
2023-05-10T13:47:42.826Z,99619.66
2023-05-10T13:50:09.655Z,99617.59
2023-05-10T13:52:36.899Z,99619.78
2023-05-10T13:55:03.791Z,99619.78
2023-05-10T13:57:31.618Z,99625.19
2023-05-10T13:59:58.540Z,99616.34
2023-05-10T14:02:26.193Z,99622.00
2023-05-10T14:04:52.825Z,99622.16
2023-05-10T14:07:20.430Z,99627.28
2023-05-10T14:09:47.047Z,99619.88
2023-05-10T14:12:15.765Z,99618.75
2023-05-10T14:14:42.391Z,99610.66
2023-05-10T14:17:11.541Z,99615.75
2023-05-10T14:19:39.706Z,99607.28
2023-05-10T14:22:07.249Z,99603.22
2023-05-10T14:24:34.031Z,99615.31
2023-05-10T14:27:01.463Z,99625.44
2023-05-10T14:29:28.272Z,99622.84
2023-05-10T14:31:55.844Z,99611.69
2023-05-10T14:34:22.531Z,99616.97
2023-05-10T14:36:49.793Z,99608.28
2023-05-10T14:39:16.465Z,99608.28
2023-05-10T14:41:45.758Z,99612.47
2023-05-10T14:44:12.431Z,99604.81
2023-05-10T14:46:40.725Z,99611.28
2023-05-10T14:49:07.394Z,99597.28
2023-05-10T14:51:34.617Z,99601.44
2023-05-10T14:54:01.583Z,99598.06
2023-05-10T14:56:29.189Z,99600.63
2023-05-10T14:58:55.755Z,99599.91
2023-05-10T15:01:23.843Z,99601.84
2023-05-10T15:03:51.587Z,99597.47
2023-05-10T15:06:24.981Z,99603.47
2023-05-10T15:08:51.544Z,99606.16
2023-05-10T15:11:18.885Z,99607.28
2023-05-10T15:13:45.546Z,99615.06
2023-05-10T15:16:12.504Z,99608.59
2023-05-10T15:18:39.317Z,99614.59
2023-05-10T15:21:06.605Z,99614.59
2023-05-10T15:23:33.189Z,99624.91
2023-05-10T15:26:01.618Z,99629.59
2023-05-10T15:28:28.162Z,99630.03
2023-05-10T15:30:55.490Z,99631.53
2023-05-10T15:33:22.567Z,99625.53
2023-05-10T15:35:49.733Z,99631.34
2023-05-10T15:38:16.289Z,99643.59
2023-05-10T15:40:43.576Z,99628.34
2023-05-10T15:43:10.155Z,99621.03
2023-05-10T15:45:37.847Z,99633.06
2023-05-10T15:48:04.920Z,99630.28
2023-05-10T15:50:32.205Z,99632.84
2023-05-10T15:52:58.794Z,99643.81
2023-05-10T15:55:26.606Z,99646.94
2023-05-10T15:57:53.215Z,99655.97
2023-05-10T16:00:20.659Z,99661.88
2023-05-10T16:02:47.273Z,99665.56
2023-05-10T16:05:14.718Z,99680.38
2023-05-10T16:07:41.993Z,99693.94
2023-05-10T16:10:11.001Z,99699.31
2023-05-10T16:12:38.371Z,99694.16
2023-05-10T16:15:06.307Z,99699.91
2023-05-10T16:17:33.047Z,99701.00
2023-05-10T16:20:01.397Z,99701.72
2023-05-10T16:22:28.735Z,99702.63
2023-05-10T16:24:57.481Z,99699.78
2023-05-10T16:27:24.093Z,99704.63
2023-05-10T16:29:51.385Z,99705.47
2023-05-10T16:32:17.955Z,99717.38
2023-05-10T16:34:45.520Z,99717.09
2023-05-10T16:37:12.077Z,99715.63
2023-05-10T16:39:39.331Z,99711.59
2023-05-10T16:42:06.182Z,99716.56
2023-05-10T16:44:33.415Z,99712.72
2023-05-10T16:47:00.050Z,99717.97
2023-05-10T16:49:27.270Z,99722.69
2023-05-10T16:51:54.005Z,99714.94
2023-05-10T16:54:22.174Z,99731.53
2023-05-10T16:56:48.773Z,99731.34
2023-05-10T16:59:16.370Z,99734.22
2023-05-10T17:01:43.985Z,99733.19
2023-05-10T17:04:10.925Z,99731.16
2023-05-10T17:06:37.592Z,99733.84
2023-05-10T17:09:05.821Z,99737.59
2023-05-10T17:11:32.565Z,99733.44
2023-05-10T17:14:01.326Z,99736.22
2023-05-10T17:16:29.072Z,99732.41
2023-05-10T17:18:56.671Z,99733.97
2023-05-10T17:21:23.803Z,99738.34
2023-05-10T17:23:50.796Z,99745.31
2023-05-10T17:26:17.344Z,99730.09
2023-05-10T17:28:43.952Z,99740.03
2023-05-10T17:31:12.039Z,99730.50
2023-05-10T17:33:38.680Z,99733.44
2023-05-10T17:36:06.140Z,99728.66
2023-05-10T17:38:32.773Z,99734.19
2023-05-10T17:40:59.980Z,99737.84
2023-05-10T17:43:26.639Z,99737.16
2023-05-10T17:45:53.947Z,99736.28
2023-05-10T17:48:20.584Z,99738.00
2023-05-10T17:50:50.518Z,99742.63
2023-05-10T17:53:17.362Z,99745.47
2023-05-10T17:55:44.732Z,99742.03
2023-05-10T17:58:12.273Z,99749.66
2023-05-10T18:00:39.741Z,99750.00
2023-05-10T18:03:06.708Z,99757.28
2023-05-10T18:05:37.769Z,99760.91
2023-05-10T18:08:05.563Z,99759.00
2023-05-10T18:10:32.860Z,99764.16
2023-05-10T18:13:00.536Z,99760.53
2023-05-10T18:15:28.069Z,99771.25
2023-05-10T18:17:55.829Z,99765.13
2023-05-10T18:20:23.119Z,99772.97
2023-05-10T18:22:50.048Z,99774.69
2023-05-10T18:25:17.443Z,99776.44
2023-05-10T18:27:44.349Z,99772.78
2023-05-10T18:30:12.738Z,99771.16
2023-05-10T18:32:39.754Z,99776.59
2023-05-10T18:35:08.026Z,99784.72
2023-05-10T18:37:35.257Z,99776.59
2023-05-10T18:40:02.597Z,99782.66
2023-05-10T18:42:29.201Z,99787.16
2023-05-10T18:44:56.165Z,99787.88
2023-05-10T18:47:22.903Z,99786.97
2023-05-10T18:49:50.209Z,99795.00
2023-05-10T18:52:16.917Z,99793.44
2023-05-10T18:54:43.793Z,99790.94
2023-05-10T18:57:11.516Z,99799.94
2023-05-10T18:59:38.885Z,99804.59
2023-05-10T19:02:05.653Z,99797.44
2023-05-10T19:04:32.960Z,99806.59
2023-05-10T19:07:01.855Z,99802.03
2023-05-10T19:09:29.094Z,99804.59
2023-05-10T19:11:55.938Z,99807.56
2023-05-10T19:14:23.066Z,99810.31
2023-05-10T19:16:51.001Z,99803.41
2023-05-10T19:19:17.916Z,99812.41
2023-05-10T19:21:44.517Z,99815.16
2023-05-10T19:24:12.507Z,99816.13
2023-05-10T19:26:39.073Z,99816.31
2023-05-10T19:29:06.351Z,99815.34
2023-05-10T19:31:34.577Z,99820.88
2023-05-10T19:34:05.394Z,99814.66
2023-05-10T19:36:33.947Z,99815.53
2023-05-10T19:39:00.834Z,99819.34
2023-05-10T19:41:28.082Z,99825.81
2023-05-10T19:43:54.776Z,99822.28
2023-05-10T19:46:22.116Z,99819.59
2023-05-10T19:48:50.904Z,99826.00
2023-05-10T19:51:18.190Z,99824.25
2023-05-10T19:53:44.845Z,99816.06
2023-05-10T19:56:13.019Z,99825.03
2023-05-10T19:58:39.845Z,99817.97
2023-05-10T20:01:08.111Z,99810.88
2023-05-10T20:03:35.871Z,99819.84
2023-05-10T20:06:04.291Z,99822.47
2023-05-10T20:08:31.339Z,99818.88
2023-05-10T20:11:00.893Z,99825.28
2023-05-10T20:13:27.608Z,99821.75
2023-05-10T20:15:59.967Z,99827.28
2023-05-10T20:18:26.974Z,99820.22
2023-05-10T20:20:58.769Z,99815.00
2023-05-10T20:23:25.695Z,99814.25
2023-05-10T20:25:53.920Z,99812.88
2023-05-10T20:28:22.862Z,99816.41
